Testy Moto2 i Moto3 na Losail – wyniki

Taka Nakagami i Romano Fenati wykręcają najlepsze czasy w swoich klasach podczas ostatnich testów na Losail.

Testy klasy Moto2 i Moto3 na torze Losail rozpoczęła piątkowa ulewa. Z jej powodu anulowano testowanie już po pierwszej sesji. Jak się okazuje – oświetlony nocą tor Losail w deszczu jest bardzo niebezpieczny. Już teraz mówi się, że jeśli padałoby podczas przyszłego weekendu (start sezonu), to wyścigi mogłyby być odwołane. Ostateczną decyzję mają podjąć sami zawodnicy.

Wracając do ostatnich przedsezonowych testów: najszybszy w klasie Moto2 był Taka Nakagami, z niewielką przewagą nad Franco Morbidelli. Ten drugi, zawodnik zespołu Marc VDS, nie był w stanie poprawić sobotniego czasu Nakagamiego z racji sporego wiatru w niedzielę. W czołówce zespołowy kolega Morbidelliego – Alex Marquez (trzecia pozycja). Miquel Oliveria dosiadający najszybszego KTM-a z silnikiem Hondy wykręcił piąty czas.

Klasa Moto3 zmagała się z silnymi podmuchami wiatru w niedzielę. Praktycznie żaden zawodnik nie poprawił sobotniego czasu. Najlepszy czas podczas weekendu wykręcił Romano Fenati (tak, ten sam, który został wyrzucony z zespołu Rossiego). W czołowej trójce same Hondy.

Moto2 – wyniki testów: 
Poz. Nr Zawodnik Motocykl Czas Róż. Prev
1 30 Takaaki Nakagami Kalex 2:00.187
2 21 Franco Morbidelli Kalex 2:00.240 0.053 0.053
3 73 Alex Márquez Kalex 2:00.427 0.240 0.187
4 55 Hafizh Syahrin Kalex 2:00.771 0.584 0.344
5 44 Miguel Oliveira KTM 2:00.861 0.674 0.090
6 12 Thomas Luthi Kalex 2:00.901 0.714 0.040
7 40 Fabio Quartararo Kalex 2:01.071 0.884 0.170
8 97 Xavi Vierge Tech 3 2:01.126 0.939 0.055
9 52 Danny Kent Suter 2:01.236 1.049 0.110
10 49 Axel Pons Kalex 2:01.252 1.065 0.016
11 23 Marcel Schrotter Suter 2:01.268 1.081 0.016
12 9 Jorge Navarro Kalex 2:01.296 1.109 0.028
13 11 Sandro Cortese Suter 2:01.311 1.124 0.015
14 60 Julian Simon Kalex 2:01.375 1.188 0.064
15 10 Luca Marini Kalex 2:01.436 1.249 0.061
16 2 Jesko Raffin Kalex 2:01.444 1.257 0.008
17 19 Xavier Simeon Kalex 2:01.510 1.323 0.066
18 32 Isaac Viñales Kalex 2:01.510 1.323 0.000
19 42 Francesco Bagnaia Kalex 2:01.513 1.326 0.003
20 54 Mattia Pasini Kalex 2:01.643 1.456 0.130
21 41 Brad Binder KTM 2:01.814 1.627 0.171
22 24 Simone Corsi Speed Up 2:01.883 1.696 0.069
23 77 Dominique Aegerter Suter 2:01.938 1.751 0.055
24 68 Yonny Hernandez Kalex 2:01.967 1.780 0.029
25 87 Remy Gardner Tech 3 2:01.967 1.780 0.000
26 7 Lorenzo Baldassarri Kalex 2:02.035 1.848 0.068
27 45 Tetsuata Nagashima Kalex 2:02.184 1.997 0.149
28 89 Khairul Idham Pawi Kalex 2:02.255 2.068 0.071
29 95 Mashel Al Naimi Speed Up 2:02.525 2.338 0.270
30 57 Edgar Pons Kalex 2:02.736 2.549 0.211
31 5 Andrea Locatelli Kalex 2:02.870 2.683 0.134
32 62 Stefano Manzi Kalex 2:03.891 3.704 1.021
33 91 Saeed Al Sulaiti Speed Up 2:04.662 4.475 0.771
Moto 3 – wyniki testów: 
Poz. Nr Zawodnik Motocykl Czas Róż.
1 5 Romano Fenati Honda 2:06.690
2 88 Jorge Martin Honda 2:06.729 0.039 0.039
3 44 Aron Canet Honda 2:06.749 0.059 0.020
4 19 Gabriel Rodrigo KTM 2:06.957 0.267 0.208
5 11 Livio Loi Honda 2:07.068 0.378 0.111
6 8 Nicolo Bulega KTM 2:07.086 0.396 0.018
7 71 Ayumu Sasaki Honda 2:07.140 0.450 0.054
8 23 Niccolo Antonelli KTM 2:07.150 0.460 0.010
9 58 Juanfran Guevara KTM 2:07.162 0.472 0.012
10 65 Philipp Oettl KTM 2:07.176 0.486 0.014
11 84 Jakub Kornfeil Peugeot 2:07.192 0.502 0.016
12 17 John McPhee Honda 2:07.327 0.637 0.135
13 64 Bo Bendsneyder KTM 2:07.339 0.649 0.012
14 36 Joan Mir Honda 2:07.418 0.728 0.079
15 42 Marcos Ramirez KTM 2:07.558 0.868 0.140
16 24 Tatsuki Suzuki Honda 2:07.628 0.938 0.070
17 16 Andrea Migno KTM 2:07.634 0.944 0.006
18 27 Kaito Toba Honda 2:07.717 1.027 0.083
19 95 Jules Danilo Honda 2:07.808 1.118 0.091
20 6 Maria Herrera KTM 2:07.856 1.166 0.048
21 48 Lorenzo Dalla Porta Mahindra 2:07.883 1.193 0.027
22 7 Adam Norrodin Honda 2:07.894 1.204 0.011
23 40 Darryn Binder KTM 2:07.905 1.215 0.011
24 41 Nakarin Atiraphuvapat Honda 2:08.036 1.346 0.131
25 14 Tony Arbolino Honda 2:08.037 1.347 0.001
26 21 Fabio Di Giannantonio Honda 2:08.074 1.384 0.037
27 75 Albert Arenas Mahindra 2:08.234 1.544 0.160
28 96 Manuel Pagliani Mahindra 2:08.260 1.570 0.026
29 12 Marco Bezzecchi Mahindra 2:08.499 1.809 0.239
30 33 Enea Bastianini Honda 2:08.713 2.023 0.214
31 4 Patrik Pulkkinen Peugeot 2:10.508 3.818 1.795

Napisane przez

Jestem tak samo fanem małych pojemności, jak wielkich i bezsensownych motocykli. W branży motocyklowej kręcę się od 10 lat, na motocyklach od dziecka. W międzyczasie (bez spektakularnych sukcesów) startowałem w zawodach enduro i cross country. Kilka lat temu zakochałem się w jeździe torowej. W ramach odpoczynku od motocykli interesuję się nowymi technologiami, tańcami swingowymi (wiem...) i narciarstwem. W zalewającym internet spamie motovlogów, kompilacji wypadków i "R6-tek w litrze" nadal widzę miejsce na konkretny magazyn motocyklowy.

Możesz polubić również: